Terminal Aerodrome Forecast
Issued by NWS Quad Cities IA IL

Home | Current Version | Previous Version | Text Only | Print | Product List | Glossary On
Versions: 1 2 3 4 5 6 7 8 9 10 11 12 13 14 15 16 17
000
FTUS43 KDVN 152300
TAFMLI
TAF
KMLI 152320Z 1600/1624 22005KT P6SM SKC
     FM160800 13013KT P6SM BKN200
     FM161400 16022G32KT P6SM BKN200
     FM161700 18025G35KT P6SM BKN200=

USA.gov is the U.S. government's official web portal to all federal, state and local government web resources and services.